Time;durP1;ratioP1;P1;durP2;ratioP2;P2;SDS_P1;SDS_P2;PMS_P1;PMS_P2;Temp;Humidity;BMP_temperature;BMP_pressure;BME280_temperature;BME280_humidity;BME280_pressure;Samples;Min_cycle;Max_cycle;Signal;HPM_P1;HPM_P2
2023/02/22 00:01:49;;;;;;;4.45;3.08;;;5.00;99.90;;;;;;5074031;28;20196;-71
2023/02/22 00:04:19;;;;;;;6.38;3.75;;;5.00;99.90;;;;;;5073178;28;20204;-70
2023/02/22 00:06:48;;;;;;;9.10;3.83;;;5.00;99.90;;;;;;5072616;28;21078;-71
2023/02/22 00:09:19;;;;;;;6.13;3.88;;;4.90;99.90;;;;;;5072367;28;20702;-70
2023/02/22 00:11:46;;;;;;;5.18;3.33;;;4.90;99.90;;;;;;5080535;28;20212;-71
2023/02/22 00:14:13;;;;;;;6.43;3.92;;;4.90;99.90;;;;;;5071903;28;20232;-71
2023/02/22 00:16:40;;;;;;;5.60;2.90;;;4.90;99.90;;;;;;5071949;28;20216;-71
2023/02/22 00:19:07;;;;;;;5.03;3.33;;;4.90;99.90;;;;;;5072056;28;20205;-71
2023/02/22 00:21:34;;;;;;;3.90;2.88;;;4.90;99.90;;;;;;5071866;28;20235;-70
2023/02/22 00:24:15;;;;;;;2.83;2.42;;;4.80;99.90;;;;;;5071562;28;20202;-70
2023/02/22 00:26:42;;;;;;;6.90;3.33;;;4.80;99.90;;;;;;5084000;28;20839;-70
2023/02/22 00:29:09;;;;;;;4.72;3.03;;;4.80;99.90;;;;;;5092330;28;20232;-70
2023/02/22 00:31:38;;;;;;;5.05;2.75;;;4.70;99.90;;;;;;5091836;28;20199;-70
2023/02/22 00:34:04;;;;;;;7.38;3.15;;;4.70;99.90;;;;;;5090985;28;20199;-70
2023/02/22 00:36:31;;;;;;;4.65;2.85;;;4.70;99.90;;;;;;5091796;28;20741;-70
2023/02/22 00:38:57;;;;;;;3.67;2.45;;;4.60;99.90;;;;;;5091688;28;20595;-70
2023/02/22 00:41:25;;;;;;;4.70;3.00;;;4.60;99.90;;;;;;5091863;28;20641;-70
2023/02/22 00:43:53;;;;;;;2.63;2.42;;;4.60;99.90;;;;;;5092308;28;20196;-70
2023/02/22 00:46:19;;;;;;;6.00;2.70;;;4.60;99.90;;;;;;5092824;28;20233;-71
2023/02/22 00:48:46;;;;;;;2.72;2.00;;;4.60;99.90;;;;;;5092251;28;20192;-70
2023/02/22 00:51:13;;;;;;;3.80;2.30;;;4.60;99.90;;;;;;5091926;28;20207;-71
2023/02/22 00:53:39;;;;;;;7.15;3.63;;;4.60;99.90;;;;;;5091200;28;20678;-71
2023/02/22 00:56:07;;;;;;;3.55;3.10;;;4.50;99.90;;;;;;5091538;28;20694;-70
2023/02/22 00:58:35;;;;;;;3.42;1.83;;;4.50;99.90;;;;;;5091565;28;20253;-71
2023/02/22 01:01:01;;;;;;;4.63;3.40;;;4.50;99.90;;;;;;5091111;28;20210;-70
2023/02/22 01:03:28;;;;;;;3.15;2.50;;;4.40;99.90;;;;;;5090872;28;20233;-70
2023/02/22 01:05:55;;;;;;;4.63;2.33;;;4.40;99.90;;;;;;5091332;28;20234;-70
2023/02/22 01:08:23;;;;;;;2.45;1.95;;;4.40;99.90;;;;;;5091333;28;20231;-70
2023/02/22 01:10:51;;;;;;;4.20;2.40;;;4.40;99.90;;;;;;5091687;28;20241;-71
2023/02/22 01:13:18;;;;;;;2.13;1.70;;;4.40;99.90;;;;;;5090942;28;20200;-70
2023/02/22 01:15:46;;;;;;;2.45;1.83;;;4.40;99.90;;;;;;5091274;28;20204;-70
2023/02/22 01:18:16;;;;;;;4.53;1.88;;;4.30;99.90;;;;;;5091404;28;20224;-70
2023/02/22 01:20:46;;;;;;;3.22;2.35;;;4.30;99.90;;;;;;5091359;28;20558;-71
2023/02/22 01:23:13;;;;;;;3.67;2.38;;;4.30;99.90;;;;;;5090793;28;20830;-72
2023/02/22 01:25:42;;;;;;;2.58;2.10;;;4.30;99.90;;;;;;5091210;28;20195;-72
2023/02/22 01:28:09;;;;;;;2.22;1.70;;;4.30;99.90;;;;;;5092864;28;20258;-72
2023/02/22 01:30:36;;;;;;;2.38;2.17;;;4.20;99.90;;;;;;5091840;28;20203;-72
2023/02/22 01:33:06;;;;;;;3.40;2.05;;;4.20;99.90;;;;;;5091563;28;20235;-72
2023/02/22 01:35:35;;;;;;;2.67;1.92;;;4.20;99.90;;;;;;5091711;28;20207;-72
2023/02/22 01:38:02;;;;;;;2.70;1.95;;;4.20;99.90;;;;;;5091270;28;20230;-72
2023/02/22 01:40:31;;;;;;;3.65;2.10;;;4.20;99.90;;;;;;5171724;22;20227;-94
2023/02/22 01:43:00;;;;;;;4.13;2.40;;;4.20;99.90;;;;;;5100295;28;20223;-93
2023/02/22 01:45:59;;;;;;;4.20;2.10;;;4.20;99.90;;;;;;5099955;28;20694;-93
2023/02/22 01:48:41;;;;;;;2.72;2.05;;;4.10;99.90;;;;;;5104507;28;20231;-91
2023/02/22 01:51:13;;;;;;;2.70;2.47;;;4.10;99.90;;;;;;5106309;28;20217;-92
2023/02/22 01:53:48;;;;;;;3.67;2.63;;;4.10;99.90;;;;;;5105315;28;20287;-92
2023/02/22 01:56:16;;;;;;;3.70;2.85;;;4.10;99.90;;;;;;5103196;28;20195;-92
2023/02/22 01:58:46;;;;;;;6.90;2.10;;;4.00;99.90;;;;;;5101298;28;20283;-92
2023/02/22 02:01:14;;;;;;;4.00;3.20;;;4.00;99.90;;;;;;5100868;28;20207;-92
2023/02/22 02:03:44;;;;;;;3.03;2.40;;;4.00;99.90;;;;;;5100747;28;20234;-92
2023/02/22 02:06:15;;;;;;;7.18;2.90;;;3.90;99.90;;;;;;5100968;28;20223;-92
2023/02/22 02:08:50;;;;;;;3.47;2.55;;;4.00;99.90;;;;;;5100726;28;20207;-92
2023/02/22 02:11:21;;;;;;;3.05;2.50;;;4.00;99.90;;;;;;5100514;28;20203;-92
2023/02/22 02:13:51;;;;;;;2.30;2.10;;;4.00;99.90;;;;;;5100042;28;20230;-92
2023/02/22 02:16:20;;;;;;;3.75;2.30;;;3.90;99.90;;;;;;5100513;28;20245;-92
2023/02/22 02:18:49;;;;;;;3.60;2.30;;;3.90;99.90;;;;;;5100190;28;20208;-93
2023/02/22 02:21:40;;;;;;;2.78;2.53;;;3.80;99.90;;;;;;5100375;28;20203;-92
2023/02/22 02:24:49;;;;;;;2.78;2.47;;;3.80;99.90;;;;;;5100592;28;20220;-92
2023/02/22 02:27:23;;;;;;;5.18;2.20;;;3.70;99.90;;;;;;5100260;28;20696;-93
2023/02/22 02:30:27;;;;;;;3.83;2.50;;;3.70;99.90;;;;;;5100424;28;20236;-92
2023/02/22 02:32:58;;;;;;;6.18;2.78;;;3.70;99.90;;;;;;5094899;28;20234;-92
2023/02/22 02:35:38;;;;;;;3.63;2.55;;;3.70;99.90;;;;;;5100038;28;20226;-92
2023/02/22 02:38:12;;;;;;;2.45;2.22;;;3.70;99.90;;;;;;5099611;28;20219;-91
2023/02/22 02:40:46;;;;;;;3.55;2.53;;;3.70;99.90;;;;;;5099362;28;20662;-92
2023/02/22 02:43:16;;;;;;;3.70;3.30;;;3.70;99.90;;;;;;5101105;28;20314;-93
2023/02/22 02:45:48;;;;;;;3.50;2.90;;;3.60;99.90;;;;;;5100972;28;20229;-92
2023/02/22 02:48:21;;;;;;;6.20;3.10;;;3.60;99.90;;;;;;5100880;28;20228;-93
2023/02/22 02:50:50;;;;;;;3.88;2.78;;;3.50;99.90;;;;;;5101118;28;20635;-93
2023/02/22 02:53:21;;;;;;;8.02;3.55;;;3.50;99.90;;;;;;5100159;28;20232;-92
2023/02/22 02:55:48;;;;;;;2.83;2.47;;;3.40;99.90;;;;;;5100378;28;20195;-92
2023/02/22 02:58:19;;;;;;;4.72;2.50;;;3.40;99.90;;;;;;5099406;28;20203;-93
2023/02/22 03:00:47;;;;;;;5.50;2.67;;;3.30;99.90;;;;;;5099505;28;20215;-92
2023/02/22 03:03:38;;;;;;;2.78;2.47;;;3.40;99.90;;;;;;5099134;28;20306;-92
2023/02/22 03:06:21;;;;;;;6.70;3.30;;;3.30;99.90;;;;;;5099101;28;20196;-92
2023/02/22 03:08:55;;;;;;;6.15;3.03;;;3.30;99.90;;;;;;5099286;28;20202;-92
2023/02/22 03:11:27;;;;;;;5.18;2.90;;;3.30;99.90;;;;;;5098885;28;20199;-93
2023/02/22 03:14:01;;;;;;;4.25;2.70;;;3.30;99.90;;;;;;5098870;28;20223;-92
2023/02/22 03:16:33;;;;;;;5.40;3.17;;;3.20;99.90;;;;;;5099542;28;20282;-93
2023/02/22 03:19:09;;;;;;;3.30;2.60;;;3.20;99.90;;;;;;5099843;28;20225;-93
2023/02/22 03:21:45;;;;;;;4.35;3.45;;;3.20;99.90;;;;;;5099673;28;20198;-93
2023/02/22 03:24:18;;;;;;;3.97;3.03;;;3.20;99.90;;;;;;5110092;28;20261;-93
2023/02/22 03:26:52;;;;;;;4.30;3.05;;;3.10;99.90;;;;;;5113296;28;20228;-94
2023/02/22 03:29:22;;;;;;;8.13;2.90;;;3.10;99.90;;;;;;5112939;28;20202;-94
2023/02/22 03:31:55;;;;;;;3.30;2.70;;;3.10;99.90;;;;;;5113223;28;20203;-93
2023/02/22 03:34:29;;;;;;;3.17;2.50;;;3.10;99.90;;;;;;5111639;28;20249;-92
2023/02/22 03:37:00;;;;;;;3.85;2.63;;;3.10;99.90;;;;;;5117026;28;20213;-91
2023/02/22 03:39:30;;;;;;;3.53;2.53;;;3.10;99.90;;;;;;5098119;28;20210;-92
2023/02/22 03:42:03;;;;;;;3.05;2.67;;;3.10;99.90;;;;;;5097659;28;20241;-91
2023/02/22 03:44:36;;;;;;;3.47;3.17;;;3.00;99.90;;;;;;5099249;28;20319;-92
2023/02/22 03:47:09;;;;;;;3.10;2.90;;;3.00;99.90;;;;;;5097608;28;20542;-92
2023/02/22 03:49:42;;;;;;;4.63;2.85;;;2.90;99.90;;;;;;5098341;28;20212;-92
2023/02/22 03:52:11;;;;;;;4.30;2.90;;;2.80;99.90;;;;;;5097421;28;20203;-91
2023/02/22 03:54:39;;;;;;;6.35;3.50;;;2.80;99.90;;;;;;5097130;28;20232;-92
2023/02/22 03:57:10;;;;;;;5.40;3.15;;;2.80;99.90;;;;;;5097178;28;20622;-91
2023/02/22 03:59:38;;;;;;;3.05;2.85;;;2.80;99.90;;;;;;5096883;28;20208;-92
2023/02/22 04:02:05;;;;;;;3.10;2.80;;;2.70;99.90;;;;;;5096758;28;20207;-92
2023/02/22 04:04:32;;;;;;;4.53;2.92;;;2.70;99.90;;;;;;5096681;28;20234;-92
2023/02/22 04:07:00;;;;;;;4.88;3.15;;;2.70;99.90;;;;;;5098943;28;20216;-94
2023/02/22 04:09:27;;;;;;;3.88;3.47;;;2.70;99.90;;;;;;5100576;28;20209;-93
2023/02/22 04:11:54;;;;;;;5.47;3.60;;;2.60;99.90;;;;;;5101135;28;20263;-93
2023/02/22 04:14:21;;;;;;;3.53;3.22;;;2.60;99.90;;;;;;5105433;28;20223;-93
2023/02/22 04:16:54;;;;;;;3.72;2.65;;;2.50;99.90;;;;;;5099378;28;20203;-92
2023/02/22 04:19:21;;;;;;;6.07;3.40;;;2.50;99.90;;;;;;5097185;28;20561;-92
2023/02/22 04:21:51;;;;;;;4.00;3.30;;;2.50;99.90;;;;;;5096138;28;20199;-93
2023/02/22 04:24:20;;;;;;;4.78;3.05;;;2.50;99.90;;;;;;5096978;28;20249;-92
2023/02/22 04:26:47;;;;;;;3.80;2.83;;;2.40;99.90;;;;;;5095642;28;20754;-92
2023/02/22 04:29:13;;;;;;;3.95;3.28;;;2.50;99.90;;;;;;5096371;28;20204;-92
2023/02/22 04:31:40;;;;;;;5.75;3.50;;;2.40;99.90;;;;;;5097771;28;20199;-92
2023/02/22 04:34:09;;;;;;;5.25;3.65;;;2.40;99.90;;;;;;5095493;28;20265;-93
2023/02/22 04:36:41;;;;;;;7.63;3.75;;;2.40;99.90;;;;;;5100684;28;20539;-92
2023/02/22 04:39:10;;;;;;;5.05;3.33;;;2.40;99.90;;;;;;5086807;28;20680;-93
2023/02/22 04:41:39;;;;;;;3.67;2.97;;;2.40;99.90;;;;;;5091749;28;20198;-93
2023/02/22 04:44:05;;;;;;;4.25;3.65;;;2.40;99.90;;;;;;5089821;28;20255;-93
2023/02/22 04:46:32;;;;;;;5.38;3.10;;;2.30;99.90;;;;;;5085781;28;20204;-93
2023/02/22 04:48:59;;;;;;;5.03;3.40;;;2.30;99.90;;;;;;5091157;28;20453;-93
2023/02/22 04:51:27;;;;;;;4.63;3.85;;;2.30;99.90;;;;;;5091897;28;20458;-94
2023/02/22 04:56:54;;;;;;;5.38;3.22;;;2.30;99.90;;;;;;5084656;28;20657;-93
2023/02/22 05:00:14;;;;;;;5.40;3.83;;;2.30;99.90;;;;;;5088827;28;20204;-93
2023/02/22 05:02:40;;;;;;;4.10;2.90;;;2.30;99.90;;;;;;5030188;22;20265;-71
2023/02/22 05:05:07;;;;;;;3.58;2.53;;;2.20;99.90;;;;;;5079023;28;20570;-72
2023/02/22 05:07:34;;;;;;;4.40;3.92;;;2.20;99.90;;;;;;5074746;28;20215;-71
2023/02/22 05:10:01;;;;;;;4.03;3.33;;;2.10;99.90;;;;;;5076539;28;20203;-71
2023/02/22 05:12:29;;;;;;;5.43;2.78;;;2.10;99.90;;;;;;5084714;28;20204;-71
2023/02/22 05:14:56;;;;;;;3.78;2.92;;;2.10;99.90;;;;;;5077459;28;20207;-71
2023/02/22 05:17:23;;;;;;;3.13;2.80;;;2.00;99.90;;;;;;5082355;28;20239;-71
2023/02/22 05:19:50;;;;;;;3.88;2.95;;;2.00;99.90;;;;;;5081225;28;20206;-71
2023/02/22 05:22:17;;;;;;;7.55;4.28;;;2.00;99.90;;;;;;5080440;28;20767;-70
2023/02/22 05:24:44;;;;;;;4.47;3.10;;;2.00;99.90;;;;;;5087460;28;20481;-70
2023/02/22 05:27:11;;;;;;;7.22;3.97;;;2.00;99.90;;;;;;5082251;28;20595;-70
2023/02/22 05:29:40;;;;;;;5.68;3.60;;;2.00;99.90;;;;;;5081909;28;20223;-70
2023/02/22 05:32:06;;;;;;;5.53;3.50;;;2.00;99.90;;;;;;5075590;28;20671;-71
2023/02/22 05:34:33;;;;;;;8.63;4.07;;;2.00;99.90;;;;;;5068517;28;20201;-70
2023/02/22 05:37:00;;;;;;;4.50;3.50;;;2.10;99.90;;;;;;5068447;28;20227;-70
2023/02/22 05:39:27;;;;;;;9.00;4.70;;;2.10;99.90;;;;;;5068780;28;20235;-70
2023/02/22 05:41:54;;;;;;;7.75;3.58;;;2.10;99.90;;;;;;5068347;28;20196;-69
2023/02/22 05:44:20;;;;;;;6.75;3.90;;;2.10;99.90;;;;;;5071739;28;20684;-71
2023/02/22 05:46:48;;;;;;;5.45;4.32;;;2.10;99.90;;;;;;5072130;28;20642;-70
2023/02/22 05:49:15;;;;;;;5.10;2.75;;;2.10;99.90;;;;;;5071829;28;20223;-70
2023/02/22 05:51:42;;;;;;;9.63;4.18;;;2.00;99.90;;;;;;5072117;28;20208;-70
2023/02/22 05:54:09;;;;;;;3.72;3.40;;;2.00;99.90;;;;;;5085099;28;20203;-69
2023/02/22 05:56:36;;;;;;;4.88;3.60;;;2.00;99.90;;;;;;5093246;28;20227;-69
2023/02/22 05:59:02;;;;;;;4.40;3.53;;;2.00;99.90;;;;;;5092822;28;20224;-70
2023/02/22 06:01:29;;;;;;;6.90;4.35;;;2.00;99.90;;;;;;5093163;28;20585;-69
2023/02/22 06:03:58;;;;;;;9.90;4.50;;;2.00;99.90;;;;;;5088965;28;20203;-70
2023/02/22 06:06:24;;;;;;;4.20;3.20;;;2.00;99.90;;;;;;5087212;28;20204;-70
2023/02/22 06:08:51;;;;;;;6.05;4.07;;;2.00;99.90;;;;;;5092309;28;20230;-70
2023/02/22 06:11:19;;;;;;;6.70;4.13;;;2.00;99.90;;;;;;5092437;28;20650;-70
2023/02/22 06:13:50;;;;;;;4.50;3.70;;;2.00;99.90;;;;;;5091384;28;20560;-70
2023/02/22 06:16:17;;;;;;;5.78;3.75;;;2.00;99.90;;;;;;5091934;28;20204;-70
2023/02/22 06:18:44;;;;;;;7.20;3.75;;;2.00;99.90;;;;;;5091763;28;20203;-69
2023/02/22 06:21:12;;;;;;;5.85;4.00;;;2.00;99.90;;;;;;5091918;28;20681;-70
2023/02/22 06:23:39;;;;;;;6.30;4.43;;;2.00;99.90;;;;;;5091745;28;20208;-70
2023/02/22 06:26:06;;;;;;;5.43;3.72;;;2.00;99.90;;;;;;5091787;28;20196;-70
2023/02/22 06:28:32;;;;;;;7.10;4.45;;;2.00;99.90;;;;;;5091623;28;20212;-70
2023/02/22 06:30:59;;;;;;;5.40;3.75;;;2.10;99.90;;;;;;5081710;28;20556;-70
2023/02/22 06:33:26;;;;;;;4.40;4.00;;;2.20;99.90;;;;;;5073828;28;20211;-70
2023/02/22 06:35:53;;;;;;;8.48;4.13;;;2.20;99.90;;;;;;5074836;28;20204;-70
2023/02/22 06:38:23;;;;;;;6.03;3.95;;;2.20;99.90;;;;;;5075073;28;20220;-70
2023/02/22 06:40:50;;;;;;;4.68;3.42;;;2.30;99.90;;;;;;5075252;28;20702;-70
2023/02/22 06:43:16;;;;;;;5.65;3.63;;;2.30;99.90;;;;;;5074502;28;20201;-71
2023/02/22 06:45:43;;;;;;;6.32;4.38;;;2.40;99.90;;;;;;5074154;28;20201;-70
2023/02/22 06:48:10;;;;;;;6.18;3.83;;;2.40;99.90;;;;;;5074715;28;20555;-70
2023/02/22 06:50:37;;;;;;;8.02;3.63;;;2.50;99.90;;;;;;5075481;28;20211;-71
2023/02/22 06:53:04;;;;;;;5.72;4.25;;;2.50;99.90;;;;;;5091670;28;20626;-70
2023/02/22 06:55:33;;;;;;;4.35;3.95;;;2.60;99.90;;;;;;5074977;28;20665;-70
2023/02/22 06:58:03;;;;;;;3.90;3.50;;;2.60;99.90;;;;;;5074947;28;20251;-70
2023/02/22 07:00:31;;;;;;;5.22;3.42;;;2.70;99.90;;;;;;5075461;28;20200;-70
2023/02/22 07:02:59;;;;;;;5.30;3.60;;;2.70;99.90;;;;;;5076340;28;20250;-70
2023/02/22 07:05:27;;;;;;;6.90;4.78;;;2.80;99.90;;;;;;5095657;28;20203;-70
2023/02/22 07:08:01;;;;;;;6.45;4.60;;;2.90;99.90;;;;;;5094551;28;20285;-71
2023/02/22 07:10:32;;;;;;;5.07;4.57;;;3.00;99.90;;;;;;5094980;28;20208;-71
2023/02/22 07:13:00;;;;;;;7.20;4.18;;;3.10;99.90;;;;;;5075154;28;20201;-70
2023/02/22 07:15:28;;;;;;;6.53;3.88;;;3.20;99.90;;;;;;5088520;28;20196;-70
2023/02/22 07:17:55;;;;;;;6.55;4.45;;;3.40;99.90;;;;;;5084917;28;20227;-70
2023/02/22 07:20:23;;;;;;;7.28;4.55;;;3.50;99.90;;;;;;5074710;28;20571;-71
2023/02/22 07:22:50;;;;;;;5.45;4.05;;;3.70;99.90;;;;;;5073326;28;20204;-70
2023/02/22 07:25:17;;;;;;;10.20;4.30;;;3.80;99.90;;;;;;5083128;28;20211;-70
2023/02/22 07:27:44;;;;;;;5.90;4.30;;;4.00;99.90;;;;;;5161019;22;20255;-70
2023/02/22 07:30:17;;;;;;;6.70;4.18;;;4.20;99.90;;;;;;5075768;28;20565;-72
2023/02/22 07:32:44;;;;;;;8.93;4.43;;;4.50;99.90;;;;;;5092106;28;20195;-72
2023/02/22 07:35:15;;;;;;;5.30;4.25;;;4.80;99.90;;;;;;5092978;28;20211;-71
2023/02/22 07:37:42;;;;;;;6.55;4.72;;;5.20;99.90;;;;;;5076574;28;20236;-71
2023/02/22 07:40:09;;;;;;;6.25;4.35;;;5.40;99.90;;;;;;5092297;28;20674;-71
2023/02/22 07:42:50;;;;;;;5.80;4.07;;;5.70;99.90;;;;;;5091641;28;20200;-71
2023/02/22 07:45:19;;;;;;;6.25;4.65;;;6.00;99.90;;;;;;5087923;28;20208;-70
2023/02/22 07:47:47;;;;;;;7.05;4.65;;;6.30;99.90;;;;;;5072164;28;20220;-70
2023/02/22 07:50:14;;;;;;;5.28;4.40;;;6.70;99.90;;;;;;5071661;28;20215;-70
2023/02/22 07:52:40;;;;;;;4.70;4.00;;;7.20;99.90;;;;;;5071733;28;20231;-71
2023/02/22 07:55:07;;;;;;;8.27;4.68;;;7.70;99.90;;;;;;5073421;28;20586;-69
2023/02/22 07:57:34;;;;;;;4.78;3.75;;;8.20;99.90;;;;;;5077437;28;20220;-72
2023/02/22 08:00:01;;;;;;;5.28;3.63;;;8.60;99.90;;;;;;5090384;28;20192;-71
2023/02/22 08:02:29;;;;;;;6.70;4.57;;;9.20;99.90;;;;;;5086646;28;20204;-72
2023/02/22 08:04:55;;;;;;;7.50;4.50;;;9.90;99.90;;;;;;5071202;28;20201;-70
2023/02/22 08:07:22;;;;;;;5.10;4.60;;;10.60;99.90;;;;;;5071943;28;20228;-71
2023/02/22 08:09:49;;;;;;;5.28;4.57;;;11.40;99.90;;;;;;5071521;28;20695;-71
2023/02/22 08:12:16;;;;;;;6.95;4.45;;;12.40;99.90;;;;;;5070884;28;20617;-72
2023/02/22 08:14:42;;;;;;;4.80;3.90;;;13.60;99.90;;;;;;5071940;28;20232;-70
2023/02/22 08:17:09;;;;;;;6.30;4.10;;;14.50;99.90;;;;;;5070938;28;21018;-69
2023/02/22 08:19:38;;;;;;;6.63;4.20;;;14.90;99.90;;;;;;5071312;28;20966;-71
2023/02/22 08:22:04;;;;;;;7.43;4.90;;;15.30;99.90;;;;;;5073162;28;20466;-71
2023/02/22 08:24:31;;;;;;;5.47;4.27;;;15.50;99.90;;;;;;5091629;28;20465;-69
2023/02/22 08:26:58;;;;;;;7.40;5.07;;;15.60;99.90;;;;;;5091397;28;20834;-71
2023/02/22 08:29:32;;;;;;;5.30;4.00;;;15.70;99.90;;;;;;5091565;28;20551;-71
2023/02/22 08:31:58;;;;;;;5.93;4.60;;;16.00;99.70;;;;;;5090724;28;20458;-71
2023/02/22 08:34:25;;;;;;;5.30;4.40;;;16.20;99.40;;;;;;5091281;28;20953;-70
2023/02/22 08:36:53;;;;;;;5.00;4.47;;;16.60;98.90;;;;;;5091572;28;20485;-72
2023/02/22 08:39:20;;;;;;;6.97;4.90;;;17.20;98.30;;;;;;5091477;28;20458;-69
2023/02/22 08:41:47;;;;;;;5.10;4.60;;;17.70;97.30;;;;;;5091790;28;20476;-71
2023/02/22 08:44:14;;;;;;;7.83;4.60;;;18.20;97.50;;;;;;5073520;28;20462;-71
2023/02/22 08:46:41;;;;;;;5.70;4.37;;;19.20;96.30;;;;;;5079417;28;20562;-71
2023/02/22 08:49:07;;;;;;;8.00;5.00;;;19.40;95.50;;;;;;5089579;28;20554;-71
2023/02/22 08:51:35;;;;;;;11.07;5.30;;;20.40;94.60;;;;;;5090983;28;20464;-72
2023/02/22 08:54:05;;;;;;;7.67;4.80;;;20.40;93.50;;;;;;5080268;28;20490;-71
2023/02/22 08:56:32;;;;;;;6.93;4.70;;;20.60;92.90;;;;;;5076384;28;20481;-71
2023/02/22 08:58:59;;;;;;;4.73;4.00;;;20.60;91.60;;;;;;5089630;28;20477;-71
2023/02/22 09:01:26;;;;;;;6.10;3.27;;;20.40;90.50;;;;;;5083574;28;20484;-70
2023/02/22 09:03:54;;;;;;;4.87;3.43;;;20.30;89.40;;;;;;5073703;28;20459;-71
2023/02/22 09:06:22;;;;;;;2.63;2.40;;;20.60;86.70;;;;;;5090560;28;20466;-70
2023/02/22 09:08:49;;;;;;;3.40;2.93;;;21.00;82.60;;;;;;5090676;28;21011;-71
2023/02/22 09:11:17;;;;;;;3.83;3.03;;;21.70;83.70;;;;;;5089872;28;20458;-72
2023/02/22 09:13:44;;;;;;;4.30;3.20;;;22.10;80.90;;;;;;5089913;28;21010;-70
2023/02/22 09:16:11;;;;;;;4.40;2.93;;;22.20;80.20;;;;;;5089948;28;20453;-72
2023/02/22 09:18:37;;;;;;;5.27;3.00;;;23.10;78.90;;;;;;5090509;28;20946;-72
2023/02/22 09:21:05;;;;;;;4.17;3.03;;;23.70;77.70;;;;;;5090052;28;20465;-71
2023/02/22 09:23:33;;;;;;;4.03;3.27;;;24.40;75.20;;;;;;5084602;28;20450;-72
2023/02/22 09:26:00;;;;;;;4.73;3.23;;;24.80;74.70;;;;;;5069767;28;20471;-72
2023/02/22 09:28:28;;;;;;;3.43;2.80;;;24.60;74.60;;;;;;5074718;28;20986;-72
2023/02/22 09:30:55;;;;;;;5.27;3.53;;;24.50;73.10;;;;;;5089718;28;20466;-72
2023/02/22 09:33:22;;;;;;;4.10;3.10;;;24.70;73.70;;;;;;5089716;28;20846;-72
2023/02/22 09:35:49;;;;;;;4.50;3.17;;;25.00;72.00;;;;;;5091180;28;20457;-72
2023/02/22 09:38:19;;;;;;;4.00;3.00;;;24.80;70.90;;;;;;5089755;28;20477;-72
2023/02/22 09:40:48;;;;;;;4.30;2.67;;;24.90;72.80;;;;;;5074623;28;20461;-70
2023/02/22 09:43:26;;;;;;;3.23;2.93;;;25.10;73.40;;;;;;5088624;28;20869;-72
2023/02/22 09:46:18;;;;;;;4.83;3.03;;;25.20;71.60;;;;;;5089982;28;20834;-72
2023/02/22 09:48:59;;;;;;;4.13;2.87;;;24.90;71.40;;;;;;5069750;28;20891;-71
2023/02/22 09:51:34;;;;;;;4.40;3.70;;;25.10;72.70;;;;;;5082292;28;20804;-72
2023/02/22 09:54:04;;;;;;;4.77;3.53;;;25.30;72.20;;;;;;5089121;28;20453;-73
2023/02/22 09:56:33;;;;;;;4.60;4.07;;;26.10;71.90;;;;;;5089729;28;20485;-72
2023/02/22 09:59:03;;;;;;;5.77;3.83;;;26.40;70.70;;;;;;5089617;28;20948;-71
2023/02/22 10:01:35;;;;;;;8.07;4.43;;;26.30;71.40;;;;;;5089940;28;20489;-71
2023/02/22 10:04:08;;;;;;;4.37;3.97;;;26.20;72.30;;;;;;5089023;28;20545;-72
2023/02/22 10:06:36;;;;;;;5.20;4.70;;;26.00;73.70;;;;;;5089573;28;21004;-71
2023/02/22 10:09:07;;;;;;;6.83;4.33;;;25.80;74.50;;;;;;5092760;28;20861;-72
2023/02/22 10:11:56;;;;;;;5.17;4.67;;;26.70;72.70;;;;;;5093380;28;21021;-71
2023/02/22 10:14:34;;;;;;;4.70;4.20;;;27.40;71.10;;;;;;5080984;28;20465;-70
2023/02/22 10:17:09;;;;;;;4.97;4.03;;;27.40;71.10;;;;;;5072951;28;20544;-71
2023/02/22 10:19:46;;;;;;;4.93;4.33;;;28.10;70.40;;;;;;5073218;28;20450;-69
2023/02/22 10:22:43;;;;;;;7.20;4.37;;;28.20;68.80;;;;;;5069284;28;20476;-71
2023/02/22 10:25:13;;;;;;;3.80;3.40;;;28.40;68.50;;;;;;5088450;28;20872;-72
2023/02/22 10:27:46;;;;;;;4.50;3.57;;;28.10;68.60;;;;;;5073181;28;20489;-70
2023/02/22 10:30:20;;;;;;;6.03;4.20;;;28.10;68.30;;;;;;5071812;28;20478;-72
2023/02/22 10:32:52;;;;;;;5.47;4.00;;;28.10;67.40;;;;;;5072216;28;20511;-70
2023/02/22 10:35:24;;;;;;;4.53;4.00;;;27.40;68.30;;;;;;5091829;28;20879;-72
2023/02/22 10:37:54;;;;;;;4.30;3.90;;;27.10;68.70;;;;;;5085332;28;20573;-71
2023/02/22 10:40:30;;;;;;;5.20;3.80;;;26.20;70.30;;;;;;5072153;28;20447;-71
2023/02/22 10:43:01;;;;;;;4.33;3.37;;;25.50;71.40;;;;;;5080355;28;20813;-71
2023/02/22 10:45:31;;;;;;;5.93;3.50;;;25.30;71.80;;;;;;5072637;28;20515;-71
2023/02/22 10:48:01;;;;;;;4.63;3.70;;;25.30;71.50;;;;;;5081936;28;20496;-71
2023/02/22 10:50:31;;;;;;;4.27;3.80;;;25.90;71.20;;;;;;5080065;28;20485;-71
2023/02/22 10:52:57;;;;;;;4.70;3.97;;;26.60;70.30;;;;;;5071298;28;20954;-71
2023/02/22 10:55:24;;;;;;;4.53;3.20;;;27.10;68.50;;;;;;5079370;28;20470;-71
2023/02/22 10:57:58;;;;;;;4.40;3.67;;;26.00;69.20;;;;;;5087639;28;20840;-71
2023/02/22 11:00:30;;;;;;;4.03;3.63;;;25.50;69.70;;;;;;5091407;28;20461;-71
2023/02/22 11:03:00;;;;;;;4.20;3.27;;;25.20;70.70;;;;;;5091720;28;20462;-71
2023/02/22 11:05:35;;;;;;;5.60;4.20;;;24.90;70.70;;;;;;5072003;28;20838;-70
2023/02/22 11:08:26;;;;;;;4.13;3.73;;;24.70;70.50;;;;;;5071147;28;20922;-69
2023/02/22 11:10:55;;;;;;;4.40;3.30;;;24.50;72.10;;;;;;5071505;28;20485;-70
2023/02/22 11:13:28;;;;;;;3.90;3.50;;;24.20;71.20;;;;;;5071031;28;21186;-71
2023/02/22 11:15:58;;;;;;;4.00;3.50;;;23.60;72.60;;;;;;5078505;28;20468;-71
2023/02/22 11:18:29;;;;;;;3.97;3.57;;;23.20;72.60;;;;;;5091372;28;20481;-70
2023/02/22 11:21:05;;;;;;;4.57;3.30;;;22.60;73.80;;;;;;5092378;28;20945;-71
2023/02/22 11:23:33;;;;;;;6.80;4.53;;;22.40;75.10;;;;;;5090587;28;20867;-71
2023/02/22 11:26:04;;;;;;;4.40;3.80;;;21.60;76.40;;;;;;5092255;28;20457;-71
2023/02/22 11:28:31;;;;;;;5.60;3.70;;;21.40;78.00;;;;;;5091513;28;20513;-69
2023/02/22 11:31:09;;;;;;;4.23;3.83;;;22.10;76.90;;;;;;5091277;28;20503;-70
2023/02/22 11:33:38;;;;;;;4.07;3.67;;;22.90;75.90;;;;;;5071335;28;20495;-70
2023/02/22 11:36:09;;;;;;;4.40;4.00;;;23.60;73.80;;;;;;5071070;28;20506;-69
2023/02/22 11:38:37;;;;;;;6.60;4.07;;;23.30;73.20;;;;;;5071340;28;20542;-72
2023/02/22 11:41:16;;;;;;;4.73;4.03;;;22.60;75.30;;;;;;5071210;28;20458;-69
2023/02/22 11:43:44;;;;;;;5.30;4.57;;;22.30;75.00;;;;;;5076374;28;20472;-70
2023/02/22 11:46:14;;;;;;;6.87;4.13;;;21.90;76.40;;;;;;5081313;28;20969;-70
2023/02/22 11:48:53;;;;;;;5.40;4.00;;;21.70;76.60;;;;;;5087060;28;20472;-70
2023/02/22 11:51:33;;;;;;;5.03;4.17;;;21.50;77.10;;;;;;5090875;28;20524;-70
2023/02/22 11:54:18;;;;;;;5.87;4.73;;;21.30;77.90;;;;;;5090492;28;20798;-70
2023/02/22 11:56:47;;;;;;;6.10;4.20;;;20.90;78.60;;;;;;5071114;28;20521;-69
2023/02/22 11:59:26;;;;;;;5.40;4.73;;;20.50;79.50;;;;;;5070377;28;20454;-70
2023/02/22 12:01:58;;;;;;;6.07;5.00;;;19.80;80.30;;;;;;5070827;28;20465;-70
2023/02/22 12:05:04;;;;;;;5.17;4.33;;;19.90;81.40;;;;;;5070258;28;20461;-69
2023/02/22 12:07:55;;;;;;;5.07;4.57;;;19.70;82.00;;;;;;5082255;28;20481;-71
2023/02/22 12:10:34;;;;;;;5.33;4.73;;;19.30;82.80;;;;;;5090511;28;20474;-70
2023/02/22 12:13:15;;;;;;;6.23;4.40;;;19.50;83.70;;;;;;5073837;28;20465;-71
2023/02/22 12:15:47;;;;;;;8.30;5.10;;;20.40;82.10;;;;;;5070757;28;20516;-70
2023/02/22 12:18:19;;;;;;;5.60;4.53;;;21.10;80.20;;;;;;5088236;28;20481;-69
2023/02/22 12:20:50;;;;;;;4.80;4.30;;;21.50;79.90;;;;;;5090598;28;20453;-69
2023/02/22 12:23:28;;;;;;;6.83;4.63;;;21.60;79.40;;;;;;5089706;28;20881;-70
2023/02/22 12:26:00;;;;;;;5.07;4.50;;;21.70;79.60;;;;;;5090410;28;20494;-71
2023/02/22 12:28:33;;;;;;;5.77;4.80;;;21.70;79.30;;;;;;5089943;28;20501;-69
2023/02/22 12:31:12;;;;;;;5.90;4.90;;;21.70;79.00;;;;;;5089975;28;20481;-72
2023/02/22 12:33:49;;;;;;;5.20;4.70;;;21.80;80.60;;;;;;5090374;28;20462;-71
2023/02/22 12:36:20;;;;;;;7.93;5.57;;;22.10;80.40;;;;;;5089719;28;20680;-72
2023/02/22 12:38:56;;;;;;;7.30;5.47;;;22.00;80.30;;;;;;5076320;28;20459;-71
2023/02/22 12:41:28;;;;;;;7.23;4.97;;;21.80;80.90;;;;;;5089067;28;20452;-70
2023/02/22 12:43:59;;;;;;;5.93;5.33;;;21.70;80.80;;;;;;5089895;28;20458;-71
2023/02/22 12:46:31;;;;;;;5.13;4.43;;;21.40;80.80;;;;;;5090614;28;20469;-70
2023/02/22 12:49:06;;;;;;;7.40;5.47;;;20.90;80.70;;;;;;5090389;28;20461;-69
2023/02/22 12:51:42;;;;;;;6.70;5.50;;;20.40;82.10;;;;;;5089969;28;20499;-72
2023/02/22 12:54:16;;;;;;;6.83;5.70;;;20.20;82.70;;;;;;5090615;28;20461;-69
2023/02/22 12:56:50;;;;;;;5.63;4.70;;;20.20;83.00;;;;;;5090681;28;20481;-70
2023/02/22 12:59:23;;;;;;;7.20;6.03;;;20.30;82.80;;;;;;5071913;28;20465;-70
2023/02/22 13:01:54;;;;;;;5.67;5.07;;;20.60;82.60;;;;;;5084102;28;20908;-70
2023/02/22 13:04:21;;;;;;;7.60;5.50;;;20.50;82.00;;;;;;5089349;28;20461;-71
2023/02/22 13:07:21;;;;;;;6.43;5.20;;;20.80;81.40;;;;;;5089861;28;20482;-70
2023/02/22 13:10:19;;;;;;;6.03;5.30;;;21.30;81.40;;;;;;5074298;28;20477;-71
2023/02/22 13:12:52;;;;;;;7.70;5.63;;;22.00;80.40;;;;;;5073595;28;20462;-71
2023/02/22 13:15:28;;;;;;;7.80;6.20;;;22.80;80.20;;;;;;5089829;28;20461;-71